Time;durP1;ratioP1;P1;durP2;ratioP2;P2;SDS_P1;SDS_P2;PMS_P1;PMS_P2;Temp;Humidity;BMP_temperature;BMP_pressure;BME280_temperature;BME280_humidity;BME280_pressure;Samples;Min_cycle;Max_cycle;Signal;HPM_P1;HPM_P2
2022/12/14 00:01:16;;;;;;;51.35;16.50;;;;;;;;;;6334830;22;20139;-93
2022/12/14 00:03:42;;;;;;;55.20;17.42;;;;;;;;;;6307765;22;20026;-92
2022/12/14 00:06:13;;;;;;;60.47;17.92;;;;;;;;;;6307378;22;20293;-93
2022/12/14 00:08:39;;;;;;;52.60;16.58;;;;;;;;;;6305761;22;20098;-93
2022/12/14 00:11:04;;;;;;;49.45;16.73;;;;;;;;;;6306631;22;20061;-93
2022/12/14 00:13:29;;;;;;;54.45;17.92;;;;;;;;;;6305116;22;20003;-93
2022/12/14 00:15:55;;;;;;;52.97;17.30;;;;;;;;;;6303275;22;20041;-93
2022/12/14 00:18:20;;;;;;;56.28;17.35;;;;;;;;;;6299681;22;20023;-93
2022/12/14 00:20:46;;;;;;;55.75;18.15;;;;;;;;;;6301005;22;20424;-92
2022/12/14 00:23:11;;;;;;;53.95;18.30;;;;;;;;;;6301757;22;20003;-94
2022/12/14 00:25:37;;;;;;;50.38;16.85;;;;;;;;;;6300999;22;20069;-91
2022/12/14 00:28:02;;;;;;;50.60;16.55;;;;;;;;;;6300489;22;20012;-92
2022/12/14 00:30:27;;;;;;;63.67;19.85;;;;;;;;;;6300737;22;20483;-93
2022/12/14 00:32:52;;;;;;;53.80;17.52;;;;;;;;;;6300733;22;20004;-93
2022/12/14 00:35:18;;;;;;;51.90;16.42;;;;;;;;;;6304169;22;19999;-91
2022/12/14 00:37:44;;;;;;;55.08;16.92;;;;;;;;;;6301808;22;20004;-93
2022/12/14 00:40:10;;;;;;;53.83;17.58;;;;;;;;;;6300009;22;20052;-93
2022/12/14 00:42:35;;;;;;;57.35;17.02;;;;;;;;;;6300699;22;20018;-92
2022/12/14 00:45:04;;;;;;;53.00;15.57;;;;;;;;;;6300937;22;20007;-93
2022/12/14 00:47:29;;;;;;;50.92;16.85;;;;;;;;;;6302489;22;20072;-92
2022/12/14 00:49:55;;;;;;;51.88;16.08;;;;;;;;;;6303997;22;20025;-92
2022/12/14 00:52:21;;;;;;;53.65;16.05;;;;;;;;;;6301605;22;20456;-93
2022/12/14 00:54:46;;;;;;;55.05;16.67;;;;;;;;;;6302818;22;20015;-92
2022/12/14 00:57:12;;;;;;;51.10;17.10;;;;;;;;;;6302015;22;20015;-93
2022/12/14 00:59:37;;;;;;;57.17;17.83;;;;;;;;;;6302485;22;20411;-92
2022/12/14 01:02:02;;;;;;;45.95;15.93;;;;;;;;;;6300187;22;20034;-91
2022/12/14 01:04:30;;;;;;;61.50;17.02;;;;;;;;;;6301328;22;20053;-93
2022/12/14 01:06:55;;;;;;;54.13;15.73;;;;;;;;;;6300689;22;20002;-92
2022/12/14 01:09:22;;;;;;;50.03;15.20;;;;;;;;;;6300704;22;20011;-94
2022/12/14 01:11:47;;;;;;;47.63;16.23;;;;;;;;;;6301067;22;20007;-93
2022/12/14 01:14:14;;;;;;;54.28;15.98;;;;;;;;;;6300130;22;20048;-92
2022/12/14 01:16:39;;;;;;;45.72;15.18;;;;;;;;;;6301563;22;20038;-92
2022/12/14 01:19:05;;;;;;;47.63;14.20;;;;;;;;;;6332421;22;20015;-92
2022/12/14 01:21:32;;;;;;;49.05;15.50;;;;;;;;;;6306904;22;20013;-91
2022/12/14 01:23:58;;;;;;;47.65;14.75;;;;;;;;;;6307887;22;20007;-92
2022/12/14 01:26:25;;;;;;;43.30;13.40;;;;;;;;;;6332877;22;20003;-92
2022/12/14 01:28:51;;;;;;;40.90;13.63;;;;;;;;;;6305168;22;20070;-92
2022/12/14 01:31:18;;;;;;;39.47;13.57;;;;;;;;;;6304498;22;20014;-92
2022/12/14 01:33:44;;;;;;;40.88;12.75;;;;;;;;;;6332051;22;20093;-92
2022/12/14 01:36:11;;;;;;;41.58;13.02;;;;;;;;;;6304741;22;20636;-92
2022/12/14 01:38:39;;;;;;;37.45;13.35;;;;;;;;;;6305183;22;20023;-92
2022/12/14 01:41:04;;;;;;;43.08;12.52;;;;;;;;;;6334018;22;20063;-92
2022/12/14 01:43:46;;;;;;;38.95;12.77;;;;;;;;;;6321499;22;20018;-92
2022/12/14 01:49:14;;;;;;;37.15;11.65;;;;;;;;;;6338420;22;20007;-93
2022/12/14 01:51:41;;;;;;;34.38;11.73;;;;;;;;;;6308293;22;20006;-93
2022/12/14 01:54:08;;;;;;;34.67;10.90;;;;;;;;;;6346835;22;19987;-92
2022/12/14 01:56:35;;;;;;;36.60;12.15;;;;;;;;;;6331027;22;20045;-93
2022/12/14 01:59:02;;;;;;;34.60;11.38;;;;;;;;;;6316303;22;20007;-93
2022/12/14 02:01:27;;;;;;;30.42;10.13;;;;;;;;;;6335902;22;19999;-91
2022/12/14 02:03:52;;;;;;;31.23;9.98;;;;;;;;;;6333753;22;20117;-91
2022/12/14 02:06:31;;;;;;;31.20;10.07;;;;;;;;;;6333979;22;19999;-92
2022/12/14 02:08:57;;;;;;;32.40;9.77;;;;;;;;;;6303778;22;20030;-92
2022/12/14 02:11:30;;;;;;;29.33;9.65;;;;;;;;;;6306465;22;20002;-91
2022/12/14 02:13:56;;;;;;;32.50;9.38;;;;;;;;;;6333846;22;20086;-92
2022/12/14 02:16:22;;;;;;;26.52;8.65;;;;;;;;;;6305315;22;20038;-93
2022/12/14 02:18:47;;;;;;;28.00;8.25;;;;;;;;;;6306071;22;20023;-93
2022/12/14 02:21:19;;;;;;;29.27;9.13;;;;;;;;;;6306653;22;20014;-92
2022/12/14 02:24:06;;;;;;;23.33;7.73;;;;;;;;;;6308202;22;20009;-92
2022/12/14 02:26:51;;;;;;;29.63;8.52;;;;;;;;;;6335326;22;20132;-93
2022/12/14 02:29:43;;;;;;;23.58;7.85;;;;;;;;;;6334906;22;20207;-93
2022/12/14 02:32:24;;;;;;;25.98;8.07;;;;;;;;;;6306258;22;20021;-92
2022/12/14 02:34:49;;;;;;;24.80;7.95;;;;;;;;;;6307589;22;20013;-93
2022/12/14 02:37:22;;;;;;;24.00;8.00;;;;;;;;;;6306486;22;20010;-93
2022/12/14 02:40:13;;;;;;;28.45;8.98;;;;;;;;;;6305245;22;20011;-92
2022/12/14 02:42:43;;;;;;;21.92;7.53;;;;;;;;;;6307389;22;20006;-92
2022/12/14 02:45:09;;;;;;;23.67;6.68;;;;;;;;;;6306525;22;20007;-92
2022/12/14 02:47:34;;;;;;;22.45;7.15;;;;;;;;;;6306286;22;20049;-92
2022/12/14 02:50:03;;;;;;;16.95;6.53;;;;;;;;;;6305676;22;20329;-92
2022/12/14 02:52:44;;;;;;;19.88;6.30;;;;;;;;;;6306697;22;20018;-92
2022/12/14 02:55:13;;;;;;;20.95;6.32;;;;;;;;;;6305051;22;20344;-92
2022/12/14 02:57:44;;;;;;;17.23;5.57;;;;;;;;;;6333013;22;20003;-92
2022/12/14 03:02:40;;;;;;;15.00;5.13;;;;;;;;;;6247896;22;20023;-91
2022/12/14 03:05:06;;;;;;;18.45;5.20;;;;;;;;;;6304673;22;20078;-91
2022/12/14 03:07:38;;;;;;;20.40;6.28;;;;;;;;;;6310251;22;20489;-91
2022/12/14 03:10:10;;;;;;;18.97;5.60;;;;;;;;;;6312869;22;20018;-91
2022/12/14 03:12:41;;;;;;;23.67;5.45;;;;;;;;;;6343390;22;20081;-91
2022/12/14 03:15:08;;;;;;;16.83;5.07;;;;;;;;;;6313935;22;20065;-91
2022/12/14 03:17:33;;;;;;;16.65;5.93;;;;;;;;;;6336241;22;19999;-92
2022/12/14 03:20:02;;;;;;;17.05;5.65;;;;;;;;;;6307891;22;20007;-92
2022/12/14 03:22:46;;;;;;;15.23;5.55;;;;;;;;;;6333725;22;19991;-91
2022/12/14 03:25:13;;;;;;;16.17;6.35;;;;;;;;;;6335784;22;20078;-91
2022/12/14 03:28:11;;;;;;;23.90;6.20;;;;;;;;;;6303824;22;20003;-91
2022/12/14 03:30:37;;;;;;;17.23;5.05;;;;;;;;;;6174929;23;20025;-91
2022/12/14 03:33:05;;;;;;;18.08;5.57;;;;;;;;;;6151518;23;20001;-91
2022/12/14 03:35:33;;;;;;;15.05;4.93;;;;;;;;;;6177895;23;20008;-91
2022/12/14 03:38:17;;;;;;;16.67;5.28;;;;;;;;;;6177353;23;20005;-90
2022/12/14 03:41:02;;;;;;;17.75;5.80;;;;;;;;;;6179497;23;20013;-92
2022/12/14 03:43:36;;;;;;;17.52;5.80;;;;;;;;;;6177825;23;20001;-92
2022/12/14 03:46:16;;;;;;;15.23;5.07;;;;;;;;;;6149798;23;20067;-90
2022/12/14 03:48:42;;;;;;;17.05;5.25;;;;;;;;;;6175731;23;20012;-91
2022/12/14 03:51:07;;;;;;;13.73;4.43;;;;;;;;;;6174662;23;20004;-91
2022/12/14 03:53:35;;;;;;;15.13;4.78;;;;;;;;;;6176803;23;20441;-92
2022/12/14 03:56:18;;;;;;;16.55;5.70;;;;;;;;;;6179168;23;20082;-92
2022/12/14 03:58:48;;;;;;;11.73;4.05;;;;;;;;;;6176604;23;20017;-90
2022/12/14 04:01:20;;;;;;;15.68;4.88;;;;;;;;;;6150501;23;20004;-91
2022/12/14 04:03:51;;;;;;;17.83;5.35;;;;;;;;;;6175590;23;20705;-91
2022/12/14 04:06:35;;;;;;;13.18;4.75;;;;;;;;;;6253217;22;20068;-91
2022/12/14 04:09:08;;;;;;;12.70;4.07;;;;;;;;;;6302406;22;20007;-92
2022/12/14 04:20:11;;;;;;;13.18;4.30;;;;;;;;;;6333784;22;20041;-91
2022/12/14 04:22:38;;;;;;;12.05;4.50;;;;;;;;;;6306133;22;20002;-92
2022/12/14 04:27:55;;;;;;;15.15;5.10;;;;;;;;;;6332455;22;20086;-91
2022/12/14 04:30:21;;;;;;;13.43;4.18;;;;;;;;;;6332208;22;20082;-92
2022/12/14 04:32:48;;;;;;;14.27;4.55;;;;;;;;;;6305574;22;20517;-91
2022/12/14 04:35:19;;;;;;;16.30;4.78;;;;;;;;;;6301270;22;20128;-92
2022/12/14 04:37:50;;;;;;;16.20;4.82;;;;;;;;;;6327712;22;20013;-93
2022/12/14 04:40:20;;;;;;;14.68;4.97;;;;;;;;;;6301660;22;20015;-93
2022/12/14 04:42:57;;;;;;;15.18;5.15;;;;;;;;;;6302469;22;20045;-91
2022/12/14 04:45:28;;;;;;;16.10;5.55;;;;;;;;;;6329925;22;20006;-92
2022/12/14 04:48:02;;;;;;;15.25;5.03;;;;;;;;;;6302590;22;20014;-91
2022/12/14 04:50:29;;;;;;;16.77;4.68;;;;;;;;;;6302160;22;20034;-92
2022/12/14 04:52:58;;;;;;;16.17;4.60;;;;;;;;;;6331063;22;20271;-90
2022/12/14 04:55:29;;;;;;;13.52;4.20;;;;;;;;;;6332404;22;20006;-91
2022/12/14 04:58:03;;;;;;;14.30;3.83;;;;;;;;;;6332193;22;20006;-91
2022/12/14 05:00:30;;;;;;;14.57;4.70;;;;;;;;;;6304536;22;20110;-91
2022/12/14 05:03:02;;;;;;;14.18;4.63;;;;;;;;;;6336069;22;20090;-89
2022/12/14 05:05:46;;;;;;;15.88;4.40;;;;;;;;;;6326812;22;20032;-92
2022/12/14 05:08:18;;;;;;;12.63;4.50;;;;;;;;;;6326335;22;19993;-92
2022/12/14 05:10:47;;;;;;;14.37;4.13;;;;;;;;;;6351249;22;20019;-92
2022/12/14 05:13:29;;;;;;;10.57;4.10;;;;;;;;;;6327790;22;20074;-91
2022/12/14 05:15:55;;;;;;;13.48;4.70;;;;;;;;;;6336139;22;20010;-92
2022/12/14 05:18:23;;;;;;;15.65;4.53;;;;;;;;;;6338521;22;19991;-92
2022/12/14 05:20:49;;;;;;;15.48;4.20;;;;;;;;;;6360478;22;19999;-91
2022/12/14 05:23:15;;;;;;;12.52;4.32;;;;;;;;;;6359479;22;20018;-92
2022/12/14 05:25:42;;;;;;;14.40;4.10;;;;;;;;;;6331746;22;19991;-92
2022/12/14 05:28:11;;;;;;;13.13;4.47;;;;;;;;;;6337963;22;19995;-92
2022/12/14 05:30:36;;;;;;;12.38;3.97;;;;;;;;;;6332614;22;20084;-92
2022/12/14 05:33:01;;;;;;;11.45;3.33;;;;;;;;;;6331479;22;20003;-92
2022/12/14 05:35:27;;;;;;;10.90;3.00;;;;;;;;;;6329586;22;20415;-92
2022/12/14 05:37:52;;;;;;;11.57;3.30;;;;;;;;;;6329669;22;20037;-91
2022/12/14 05:40:17;;;;;;;12.00;3.25;;;;;;;;;;6303038;22;20090;-91
2022/12/14 05:42:43;;;;;;;11.68;4.22;;;;;;;;;;6302700;22;20416;-94
2022/12/14 05:45:10;;;;;;;12.02;3.55;;;;;;;;;;6304036;22;20003;-93
2022/12/14 05:47:35;;;;;;;10.85;3.25;;;;;;;;;;6304606;22;20444;-92
2022/12/14 05:50:00;;;;;;;10.85;2.95;;;;;;;;;;6331204;22;20084;-92
2022/12/14 05:52:26;;;;;;;11.93;3.28;;;;;;;;;;6334311;22;20135;-92
2022/12/14 05:54:52;;;;;;;10.77;3.10;;;;;;;;;;6334664;22;19999;-89
2022/12/14 05:57:17;;;;;;;12.40;3.08;;;;;;;;;;6334686;22;20041;-91
2022/12/14 05:59:42;;;;;;;13.27;3.33;;;;;;;;;;6333479;22;20486;-91
2022/12/14 06:02:07;;;;;;;12.20;3.10;;;;;;;;;;6330778;22;20893;-92
2022/12/14 06:04:33;;;;;;;11.93;3.10;;;;;;;;;;6309605;22;20043;-91
2022/12/14 06:06:58;;;;;;;13.02;2.88;;;;;;;;;;6307834;22;20607;-91
2022/12/14 06:09:23;;;;;;;8.98;2.30;;;;;;;;;;6334267;22;20024;-91
2022/12/14 06:11:49;;;;;;;10.77;3.03;;;;;;;;;;6332170;22;20036;-92
2022/12/14 06:14:14;;;;;;;9.00;3.00;;;;;;;;;;6331473;22;20003;-93
2022/12/14 06:16:40;;;;;;;13.20;3.10;;;;;;;;;;6308623;22;20022;-92
2022/12/14 06:19:06;;;;;;;9.82;2.70;;;;;;;;;;6310552;22;20026;-91
2022/12/14 06:21:32;;;;;;;9.40;2.53;;;;;;;;;;6336326;22;20006;-91
2022/12/14 06:23:58;;;;;;;17.98;2.67;;;;;;;;;;6337571;22;20057;-91
2022/12/14 06:26:24;;;;;;;10.32;2.78;;;;;;;;;;6308663;22;20439;-91
2022/12/14 06:28:49;;;;;;;23.67;3.10;;;;;;;;;;6337553;22;20009;-92
2022/12/14 06:31:16;;;;;;;14.15;3.15;;;;;;;;;;6334295;22;20003;-91
2022/12/14 06:36:11;;;;;;;10.82;2.65;;;;;;;;;;6280395;22;20028;-92
2022/12/14 06:38:37;;;;;;;9.05;2.58;;;;;;;;;;6336801;22;20007;-91
2022/12/14 06:41:06;;;;;;;9.25;2.83;;;;;;;;;;6333773;22;20038;-91
2022/12/14 06:43:31;;;;;;;8.60;2.53;;;;;;;;;;6307233;22;20006;-91
2022/12/14 06:45:56;;;;;;;9.33;1.97;;;;;;;;;;6306761;22;20391;-91
2022/12/14 06:48:22;;;;;;;11.75;2.97;;;;;;;;;;6333895;22;20257;-93
2022/12/14 06:50:47;;;;;;;9.48;2.60;;;;;;;;;;6304187;22;20003;-92
2022/12/14 06:53:13;;;;;;;8.10;2.33;;;;;;;;;;6303261;22;20019;-92
2022/12/14 06:55:38;;;;;;;10.90;2.47;;;;;;;;;;6303740;22;20067;-92
2022/12/14 06:58:03;;;;;;;8.98;2.47;;;;;;;;;;6304942;22;20068;-93
2022/12/14 07:00:28;;;;;;;9.88;2.60;;;;;;;;;;6331554;22;20402;-92
2022/12/14 07:02:54;;;;;;;10.85;2.42;;;;;;;;;;6329254;22;20080;-92
2022/12/14 07:05:19;;;;;;;11.50;2.65;;;;;;;;;;6331110;22;20432;-91
2022/12/14 07:07:44;;;;;;;9.63;2.47;;;;;;;;;;6334497;22;20424;-92
2022/12/14 07:10:10;;;;;;;12.40;2.40;;;;;;;;;;6306607;22;20019;-92
2022/12/14 07:12:35;;;;;;;10.30;3.40;;;;;;;;;;6306082;22;20034;-93
2022/12/14 07:15:00;;;;;;;7.45;2.17;;;;;;;;;;6335264;22;20072;-92
2022/12/14 07:17:26;;;;;;;10.05;2.05;;;;;;;;;;6334163;22;20013;-91
2022/12/14 07:19:52;;;;;;;12.85;2.47;;;;;;;;;;6308332;22;20358;-92
2022/12/14 07:22:17;;;;;;;15.35;2.83;;;;;;;;;;6335335;22;20591;-92
2022/12/14 07:24:42;;;;;;;9.95;2.50;;;;;;;;;;6334513;22;20679;-91
2022/12/14 07:27:08;;;;;;;6.77;1.60;;;;;;;;;;6335816;22;20025;-91
2022/12/14 07:29:33;;;;;;;6.40;1.88;;;;;;;;;;6336128;22;20259;-90
2022/12/14 07:31:58;;;;;;;9.13;2.15;;;;;;;;;;6307077;22;20118;-91
2022/12/14 07:34:24;;;;;;;9.82;2.10;;;;;;;;;;6335984;22;20015;-91
2022/12/14 07:36:50;;;;;;;9.70;2.03;;;;;;;;;;6311696;22;20046;-93
2022/12/14 07:39:16;;;;;;;16.50;3.05;;;;;;;;;;6350169;22;19987;-93
2022/12/14 07:41:42;;;;;;;8.15;2.10;;;;;;;;;;6317033;22;20022;-93
2022/12/14 07:44:07;;;;;;;11.25;2.15;;;;;;;;;;6316408;22;20003;-93
2022/12/14 07:46:32;;;;;;;10.55;2.65;;;;;;;;;;6341706;22;20010;-95
2022/12/14 07:48:58;;;;;;;9.52;2.13;;;;;;;;;;6338602;22;20077;-92
2022/12/14 07:51:25;;;;;;;34.80;4.15;;;;;;;;;;6326875;22;20051;-91
2022/12/14 07:53:51;;;;;;;12.60;2.20;;;;;;;;;;6329122;22;20021;-93
2022/12/14 07:56:18;;;;;;;56.50;4.82;;;;;;;;;;6314543;22;20097;-94
2022/12/14 07:58:43;;;;;;;9.52;2.05;;;;;;;;;;6313917;22;20006;-93
2022/12/14 08:01:19;;;;;;;10.00;2.10;;;;;;;;;;6335493;22;20006;-92
2022/12/14 08:03:45;;;;;;;10.50;1.90;;;;;;;;;;6334861;22;20018;-93
2022/12/14 08:06:11;;;;;;;6.03;1.77;;;;;;;;;;6335187;22;20006;-91
2022/12/14 08:08:37;;;;;;;7.13;1.85;;;;;;;;;;6309090;22;20071;-92
2022/12/14 08:11:02;;;;;;;58.08;5.78;;;;;;;;;;6309963;22;20015;-93
2022/12/14 08:13:28;;;;;;;8.50;1.73;;;;;;;;;;6314406;22;20062;-92
2022/12/14 08:15:53;;;;;;;6.85;1.50;;;;;;;;;;6325365;22;20036;-94
2022/12/14 08:18:19;;;;;;;10.35;1.60;;;;;;;;;;6351058;22;20452;-92
2022/12/14 08:20:47;;;;;;;10.95;1.98;;;;;;;;;;6349315;22;20014;-90
2022/12/14 08:23:13;;;;;;;8.52;1.70;;;;;;;;;;6319241;22;19999;-90
2022/12/14 08:25:38;;;;;;;11.57;1.80;;;;;;;;;;6343567;22;20002;-91
2022/12/14 08:28:05;;;;;;;6.45;1.50;;;;;;;;;;6344872;22;20283;-91
2022/12/14 08:30:31;;;;;;;9.30;1.88;;;;;;;;;;6346712;22;19990;-92
2022/12/14 08:32:56;;;;;;;8.30;1.30;;;;;;;;;;6352439;22;19999;-92
2022/12/14 08:35:25;;;;;;;7.93;1.63;;;;;;;;;;6347500;22;20014;-94
2022/12/14 08:37:51;;;;;;;9.07;1.65;;;;;;;;;;6315627;22;20034;-92
2022/12/14 08:40:16;;;;;;;7.45;1.55;;;;;;;;;;6344472;22;20005;-92
2022/12/14 08:42:42;;;;;;;7.88;1.63;;;;;;;;;;6341775;22;20472;-94
2022/12/14 08:45:07;;;;;;;7.10;1.50;;;;;;;;;;6342444;22;20014;-95
2022/12/14 08:47:33;;;;;;;6.10;1.50;;;;;;;;;;6314798;22;20036;-93
2022/12/14 08:49:58;;;;;;;11.68;1.90;;;;;;;;;;6342870;22;20121;-93
2022/12/14 08:52:23;;;;;;;10.82;2.53;;;;;;;;;;6316132;22;20637;-95
2022/12/14 08:54:49;;;;;;;9.75;1.80;;;;;;;;;;6316702;22;20085;-94
2022/12/14 08:57:14;;;;;;;7.68;1.58;;;;;;;;;;6337733;22;20530;-92
2022/12/14 08:59:40;;;;;;;8.57;1.75;;;;;;;;;;6313398;22;19999;-92
2022/12/14 09:02:05;;;;;;;7.72;1.45;;;;;;;;;;6341082;22;19999;-93
2022/12/14 09:04:30;;;;;;;9.60;1.45;;;;;;;;;;6331466;22;20534;-90
2022/12/14 09:06:56;;;;;;;8.02;1.15;;;;;;;;;;6319330;22;20007;-94
2022/12/14 09:09:24;;;;;;;9.52;1.73;;;;;;;;;;6316603;22;20003;-95
2022/12/14 09:11:50;;;;;;;11.30;1.92;;;;;;;;;;6319214;22;20003;-92
2022/12/14 09:14:15;;;;;;;8.77;1.38;;;;;;;;;;6322408;22;20036;-92
2022/12/14 09:16:40;;;;;;;7.32;1.38;;;;;;;;;;6321073;22;20023;-91
2022/12/14 09:19:11;;;;;;;11.75;1.50;;;;;;;;;;6319511;22;20017;-96
2022/12/14 09:21:37;;;;;;;37.40;3.65;;;;;;;;;;6313992;22;20003;-90
2022/12/14 09:24:04;;;;;;;6.13;1.20;;;;;;;;;;6316026;22;20007;-90
2022/12/14 09:26:29;;;;;;;9.55;1.15;;;;;;;;;;6316205;22;20015;-89
2022/12/14 09:28:55;;;;;;;6.75;1.85;;;;;;;;;;6313253;22;20007;-91
2022/12/14 09:31:21;;;;;;;7.25;1.40;;;;;;;;;;6312759;22;20809;-89
2022/12/14 09:33:47;;;;;;;7.03;1.52;;;;;;;;;;6312708;22;20004;-90
2022/12/14 09:36:17;;;;;;;6.50;1.52;;;;;;;;;;6313766;22;20301;-88
2022/12/14 09:38:43;;;;;;;6.55;1.10;;;;;;;;;;6314407;22;20031;-89
2022/12/14 09:41:21;;;;;;;7.50;1.40;;;;;;;;;;6315235;22;20232;-91
2022/12/14 09:43:51;;;;;;;6.55;1.33;;;;;;;;;;6312679;22;20015;-92
2022/12/14 09:46:27;;;;;;;9.23;1.10;;;;;;;;;;6315707;22;20013;-89
2022/12/14 09:48:53;;;;;;;6.22;1.20;;;;;;;;;;6311674;22;20011;-90
2022/12/14 09:51:20;;;;;;;5.13;1.08;;;;;;;;;;6318544;22;20005;-90
2022/12/14 09:53:47;;;;;;;5.43;1.10;;;;;;;;;;6317877;22;20007;-91
2022/12/14 09:56:19;;;;;;;7.15;1.50;;;;;;;;;;6317226;22;20007;-90
2022/12/14 09:58:57;;;;;;;8.38;1.40;;;;;;;;;;6323334;22;20011;-89
2022/12/14 10:01:22;;;;;;;8.85;1.50;;;;;;;;;;6320653;22;19999;-90
2022/12/14 10:04:00;;;;;;;7.43;1.48;;;;;;;;;;6322209;22;20026;-88
2022/12/14 10:06:40;;;;;;;7.60;1.33;;;;;;;;;;6316388;22;20007;-88
2022/12/14 10:09:06;;;;;;;8.05;1.20;;;;;;;;;;6311165;22;20011;-89
2022/12/14 10:11:40;;;;;;;6.68;1.30;;;;;;;;;;6340937;22;20085;-92
2022/12/14 10:14:14;;;;;;;7.53;1.33;;;;;;;;;;6305507;22;20007;-88
2022/12/14 10:16:58;;;;;;;5.43;1.38;;;;;;;;;;6305881;22;20014;-94
2022/12/14 10:19:31;;;;;;;10.02;1.38;;;;;;;;;;6304124;22;20085;-91
2022/12/14 10:21:59;;;;;;;9.82;1.27;;;;;;;;;;6304636;22;20014;-88
2022/12/14 10:24:32;;;;;;;7.25;1.50;;;;;;;;;;6329189;22;20076;-88
2022/12/14 10:26:58;;;;;;;7.80;1.50;;;;;;;;;;6332414;22;20693;-90
2022/12/14 10:29:42;;;;;;;7.50;1.35;;;;;;;;;;6303693;22;20086;-87
2022/12/14 10:32:20;;;;;;;7.05;1.50;;;;;;;;;;6301419;22;20017;-89
2022/12/14 10:34:46;;;;;;;8.40;1.58;;;;;;;;;;6300767;22;20013;-89
2022/12/14 10:37:11;;;;;;;8.32;1.30;;;;;;;;;;6303817;22;20015;-88
2022/12/14 10:39:36;;;;;;;9.73;1.50;;;;;;;;;;6330279;22;20450;-87
2022/12/14 10:42:09;;;;;;;11.37;1.50;;;;;;;;;;6303743;22;20716;-87
2022/12/14 10:44:34;;;;;;;8.27;1.40;;;;;;;;;;6302891;22;20215;-89
2022/12/14 10:47:11;;;;;;;10.23;1.20;;;;;;;;;;6333802;22;20007;-88
2022/12/14 10:49:41;;;;;;;5.95;1.13;;;;;;;;;;6304591;22;20137;-90
2022/12/14 10:52:18;;;;;;;6.50;1.50;;;;;;;;;;6332348;22;20003;-90
2022/12/14 10:54:45;;;;;;;7.35;1.52;;;;;;;;;;6303700;22;20427;-89
2022/12/14 10:57:36;;;;;;;17.77;1.60;;;;;;;;;;6301948;22;20030;-88
2022/12/14 11:00:08;;;;;;;8.30;1.33;;;;;;;;;;6322843;22;20081;-88
2022/12/14 11:02:40;;;;;;;9.50;1.40;;;;;;;;;;6304922;22;20011;-88
2022/12/14 11:05:27;;;;;;;7.72;1.52;;;;;;;;;;6304141;22;20044;-89
2022/12/14 11:07:53;;;;;;;8.77;1.75;;;;;;;;;;6329198;22;20022;-89
2022/12/14 11:10:23;;;;;;;11.57;1.63;;;;;;;;;;6302527;22;20011;-89
2022/12/14 11:13:11;;;;;;;9.60;1.40;;;;;;;;;;6331320;22;20009;-89
2022/12/14 11:15:39;;;;;;;16.35;1.58;;;;;;;;;;6311205;22;20075;-89
2022/12/14 11:18:04;;;;;;;11.18;1.50;;;;;;;;;;6335585;22;20028;-89
2022/12/14 11:20:30;;;;;;;9.13;1.30;;;;;;;;;;6333922;22;20058;-89
2022/12/14 11:22:57;;;;;;;16.42;2.40;;;;;;;;;;6339996;22;20075;-89
2022/12/14 11:25:29;;;;;;;7.35;1.45;;;;;;;;;;6313829;22;20516;-89
2022/12/14 11:27:55;;;;;;;10.68;1.65;;;;;;;;;;6337094;22;20070;-89
2022/12/14 11:30:20;;;;;;;9.15;1.60;;;;;;;;;;6308436;22;20050;-89
2022/12/14 11:32:46;;;;;;;10.95;1.33;;;;;;;;;;6305669;22;20002;-89
2022/12/14 11:35:16;;;;;;;12.63;1.85;;;;;;;;;;6306987;22;20093;-89
2022/12/14 11:37:42;;;;;;;8.32;1.60;;;;;;;;;;6311158;22;20030;-90
2022/12/14 11:40:17;;;;;;;7.80;1.58;;;;;;;;;;6307200;22;20502;-90
2022/12/14 11:42:46;;;;;;;8.68;1.33;;;;;;;;;;6309514;22;20029;-90
2022/12/14 11:45:29;;;;;;;9.05;1.50;;;;;;;;;;6317593;22;20059;-90
2022/12/14 11:48:13;;;;;;;10.75;1.85;;;;;;;;;;6345582;22;20003;-89
2022/12/14 11:50:38;;;;;;;6.45;1.10;;;;;;;;;;6350135;22;20386;-90
2022/12/14 11:53:05;;;;;;;15.77;1.90;;;;;;;;;;6336822;22;20002;-91
2022/12/14 11:55:32;;;;;;;8.82;1.80;;;;;;;;;;6336871;22;20734;-90
2022/12/14 11:57:58;;;;;;;10.93;1.90;;;;;;;;;;6336014;22;19995;-89
2022/12/14 12:00:25;;;;;;;10.38;1.83;;;;;;;;;;6339070;22;20058;-90
2022/12/14 12:02:59;;;;;;;9.43;1.50;;;;;;;;;;6312860;22;20011;-91
2022/12/14 12:05:26;;;;;;;8.60;1.60;;;;;;;;;;6340986;22;20003;-91
2022/12/14 12:07:57;;;;;;;13.00;1.80;;;;;;;;;;6341415;22;20044;-90
2022/12/14 12:10:32;;;;;;;7.57;1.33;;;;;;;;;;6332371;22;20022;-90
2022/12/14 12:13:02;;;;;;;8.43;1.92;;;;;;;;;;6309528;22;20007;-90
2022/12/14 12:15:38;;;;;;;9.77;1.50;;;;;;;;;;6314959;22;19995;-91
2022/12/14 12:18:07;;;;;;;10.13;1.52;;;;;;;;;;6346187;22;19999;-92
2022/12/14 12:20:34;;;;;;;9.93;1.65;;;;;;;;;;6314559;22;20111;-91
2022/12/14 12:23:21;;;;;;;8.20;1.73;;;;;;;;;;6309864;22;20013;-91
2022/12/14 12:25:47;;;;;;;9.52;1.55;;;;;;;;;;6336080;22;20130;-91
2022/12/14 12:28:26;;;;;;;10.18;1.70;;;;;;;;;;6355830;22;20058;-93
2022/12/14 12:30:57;;;;;;;9.93;1.35;;;;;;;;;;6351542;22;19995;-89
2022/12/14 12:33:30;;;;;;;12.88;2.50;;;;;;;;;;6334722;22;20008;-91
2022/12/14 12:35:59;;;;;;;6.95;1.48;;;;;;;;;;6307132;22;20049;-89
2022/12/14 12:38:24;;;;;;;8.23;1.50;;;;;;;;;;6281616;22;20119;-89
2022/12/14 12:40:56;;;;;;;7.73;1.30;;;;;;;;;;6310443;22;20424;-89
2022/12/14 12:43:25;;;;;;;12.95;2.15;;;;;;;;;;6308539;22;20369;-91
2022/12/14 12:46:13;;;;;;;9.80;1.98;;;;;;;;;;6339587;22;20010;-89
2022/12/14 12:48:48;;;;;;;9.77;1.73;;;;;;;;;;6302412;22;20038;-90
2022/12/14 12:51:15;;;;;;;8.52;1.98;;;;;;;;;;6310048;22;20556;-90
2022/12/14 12:53:43;;;;;;;11.57;1.90;;;;;;;;;;6303190;22;20023;-90
2022/12/14 12:56:22;;;;;;;8.75;1.95;;;;;;;;;;6300738;22;20010;-90
2022/12/14 12:58:49;;;;;;;8.48;1.67;;;;;;;;;;6301502;22;20041;-90
2022/12/14 13:01:31;;;;;;;11.50;1.83;;;;;;;;;;6332577;22;19995;-91
2022/12/14 13:03:58;;;;;;;13.32;2.30;;;;;;;;;;6325009;22;20053;-90
2022/12/14 13:06:28;;;;;;;12.85;2.38;;;;;;;;;;6301099;22;20007;-91
2022/12/14 13:08:58;;;;;;;11.10;1.95;;;;;;;;;;6301932;22;20076;-90
2022/12/14 13:11:31;;;;;;;8.18;1.80;;;;;;;;;;6330974;22;20016;-91
2022/12/14 13:14:11;;;;;;;8.45;1.73;;;;;;;;;;6330259;22;20026;-90
2022/12/14 13:16:37;;;;;;;11.20;1.95;;;;;;;;;;6303074;22;20757;-91
2022/12/14 13:19:10;;;;;;;7.07;1.73;;;;;;;;;;6302926;22;20124;-90
2022/12/14 13:21:38;;;;;;;10.50;2.08;;;;;;;;;;6331981;22;20420;-92
2022/12/14 13:24:03;;;;;;;10.02;1.60;;;;;;;;;;6331714;22;19995;-91
2022/12/14 13:26:32;;;;;;;12.27;1.73;;;;;;;;;;6331452;22;20014;-91
2022/12/14 13:28:57;;;;;;;7.22;1.52;;;;;;;;;;6305949;22;20006;-89
2022/12/14 13:31:22;;;;;;;11.38;2.05;;;;;;;;;;6305544;22;20014;-89
2022/12/14 13:34:06;;;;;;;8.33;2.10;;;;;;;;;;6332349;22;20003;-88
2022/12/14 13:36:37;;;;;;;8.40;1.60;;;;;;;;;;6306315;22;20382;-91
2022/12/14 13:39:11;;;;;;;11.63;1.60;;;;;;;;;;6305724;22;20002;-89
2022/12/14 13:42:03;;;;;;;7.85;1.45;;;;;;;;;;6303635;22;20019;-89
2022/12/14 13:44:43;;;;;;;7.47;1.55;;;;;;;;;;6318712;22;20086;-90
2022/12/14 13:47:18;;;;;;;8.57;1.77;;;;;;;;;;6299591;22;20030;-89
2022/12/14 13:49:54;;;;;;;6.20;1.30;;;;;;;;;;6328221;22;20494;-93
2022/12/14 13:52:27;;;;;;;11.93;1.60;;;;;;;;;;6296991;22;20502;-91
2022/12/14 13:54:53;;;;;;;8.30;1.67;;;;;;;;;;6326451;22;19999;-90
2022/12/14 13:57:23;;;;;;;13.57;1.50;;;;;;;;;;6326986;22;20068;-91
2022/12/14 13:59:51;;;;;;;11.73;1.85;;;;;;;;;;6301876;22;20085;-90
2022/12/14 14:02:39;;;;;;;10.13;1.65;;;;;;;;;;6330652;22;20069;-91
2022/12/14 14:05:14;;;;;;;8.68;1.38;;;;;;;;;;6307962;22;20025;-89
2022/12/14 14:07:50;;;;;;;6.63;1.15;;;;;;;;;;6301181;22;20447;-90
2022/12/14 14:10:35;;;;;;;8.98;1.33;;;;;;;;;;6298637;22;20631;-91
2022/12/14 14:13:20;;;;;;;10.80;1.70;;;;;;;;;;6326905;22;20053;-90
2022/12/14 14:15:50;;;;;;;9.45;1.23;;;;;;;;;;6302618;22;20003;-91
2022/12/14 14:18:17;;;;;;;12.35;1.65;;;;;;;;;;6304972;22;19999;-90
2022/12/14 14:20:45;;;;;;;5.18;1.20;;;;;;;;;;6305461;22;20033;-91
2022/12/14 14:23:16;;;;;;;6.82;1.38;;;;;;;;;;6305306;22;20003;-91
2022/12/14 14:25:45;;;;;;;11.02;1.58;;;;;;;;;;6306092;22;20601;-90
2022/12/14 14:28:12;;;;;;;13.20;1.95;;;;;;;;;;6306065;22;20002;-90
2022/12/14 14:30:41;;;;;;;11.85;1.52;;;;;;;;;;6306447;22;20362;-90
2022/12/14 14:33:25;;;;;;;9.70;1.65;;;;;;;;;;6302883;22;20093;-91
2022/12/14 14:35:51;;;;;;;5.28;1.05;;;;;;;;;;6349238;22;20033;-90
2022/12/14 14:38:36;;;;;;;7.63;1.88;;;;;;;;;;6323441;22;20011;-90
2022/12/14 14:41:10;;;;;;;7.57;1.27;;;;;;;;;;6337449;22;19995;-92
2022/12/14 14:43:45;;;;;;;7.13;1.08;;;;;;;;;;6333641;22;19999;-92
2022/12/14 14:46:11;;;;;;;7.28;1.00;;;;;;;;;;6325331;22;20056;-92
2022/12/14 14:48:39;;;;;;;9.45;1.50;;;;;;;;;;6330047;22;19999;-92
2022/12/14 14:51:14;;;;;;;7.28;1.10;;;;;;;;;;6351271;22;20010;-90
2022/12/14 14:53:42;;;;;;;5.25;1.20;;;;;;;;;;6311295;22;20059;-89
2022/12/14 14:56:26;;;;;;;6.68;1.25;;;;;;;;;;6337479;22;20036;-91
2022/12/14 14:59:11;;;;;;;7.43;1.63;;;;;;;;;;6307018;22;20026;-90
2022/12/14 15:01:37;;;;;;;6.70;1.30;;;;;;;;;;6313967;22;20092;-92
2022/12/14 15:04:11;;;;;;;9.65;1.42;;;;;;;;;;6350482;22;20014;-92
2022/12/14 15:06:41;;;;;;;7.75;1.30;;;;;;;;;;6350590;22;20024;-91